createdAt,value
2018-04-25T00:02:25.590Z,4.60
2018-04-25T00:04:53.798Z,4.57
2018-04-25T00:07:21.998Z,4.60
2018-04-25T00:09:50.199Z,5.30
2018-04-25T00:12:18.398Z,5.43
2018-04-25T00:14:46.601Z,4.80
2018-04-25T00:17:14.038Z,5.90
2018-04-25T00:19:41.487Z,5.13
2018-04-25T00:22:08.913Z,4.93
2018-04-25T00:24:36.353Z,5.30
2018-04-25T00:27:03.793Z,5.77
2018-04-25T00:29:32.015Z,5.83
2018-04-25T00:32:00.198Z,5.17
2018-04-25T00:34:27.634Z,4.20
2018-04-25T00:36:55.074Z,5.20
2018-04-25T00:39:22.526Z,5.40
2018-04-25T00:41:50.721Z,5.50
2018-04-25T00:44:18.963Z,5.23
2018-04-25T00:46:46.389Z,5.63
2018-04-25T00:49:13.826Z,5.70
2018-04-25T00:51:41.270Z,5.13
2018-04-25T00:54:09.482Z,4.40
2018-04-25T00:56:36.921Z,5.60
2018-04-25T00:59:04.361Z,5.20
2018-04-25T01:01:31.819Z,5.30
2018-04-25T01:04:00.019Z,5.37
2018-04-25T01:06:27.457Z,5.80
2018-04-25T01:08:54.895Z,5.20
2018-04-25T01:11:22.334Z,4.90
2018-04-25T01:13:49.766Z,4.90
2018-04-25T01:16:17.210Z,5.67
2018-04-25T01:18:45.417Z,5.40
2018-04-25T01:21:16.534Z,5.43
2018-04-25T01:23:44.741Z,6.10
2018-04-25T01:26:12.192Z,5.40
2018-04-25T01:28:43.259Z,5.07
2018-04-25T01:31:17.656Z,5.90
2018-04-25T01:36:57.016Z,5.67
2018-04-25T01:39:25.220Z,4.97
2018-04-25T01:41:52.670Z,6.17
2018-04-25T01:44:21.959Z,5.33
2018-04-25T01:46:51.923Z,5.63
2018-04-25T01:52:30.685Z,7.20
2018-04-25T01:55:09.993Z,5.27
2018-04-25T01:57:50.227Z,5.60
2018-04-25T02:00:29.658Z,4.93
2018-04-25T02:02:56.622Z,5.50
2018-04-25T02:05:24.051Z,5.30
2018-04-25T02:07:51.549Z,5.57
2018-04-25T02:10:18.931Z,5.77
2018-04-25T02:12:47.147Z,5.20
2018-04-25T02:15:15.350Z,4.97
2018-04-25T02:17:42.807Z,5.70
2018-04-25T02:20:10.237Z,5.03
2018-04-25T02:22:37.679Z,5.50
2018-04-25T02:25:05.891Z,5.70
2018-04-25T02:27:33.326Z,6.07
2018-04-25T02:30:00.767Z,5.20
2018-04-25T02:32:28.203Z,5.10
2018-04-25T02:34:55.642Z,5.70
2018-04-25T02:37:23.078Z,4.70
2018-04-25T02:39:51.282Z,5.43
2018-04-25T02:42:19.491Z,4.70
2018-04-25T02:44:47.708Z,5.03
2018-04-25T02:47:15.133Z,5.87
2018-04-25T02:49:42.579Z,5.20
2018-04-25T02:52:10.006Z,4.97
2018-04-25T02:54:37.450Z,5.50
2018-04-25T02:57:04.884Z,4.97
2018-04-25T02:59:33.104Z,5.83
2018-04-25T03:02:00.591Z,5.00
2018-04-25T03:04:28.027Z,6.03
2018-04-25T03:06:55.467Z,5.80
2018-04-25T03:09:22.904Z,4.90
2018-04-25T03:11:51.110Z,5.60
2018-04-25T03:14:19.314Z,5.50
2018-04-25T03:16:46.778Z,5.60
2018-04-25T03:19:14.206Z,7.00
2018-04-25T03:21:41.645Z,6.87
2018-04-25T03:24:09.846Z,6.40
2018-04-25T03:26:38.068Z,6.17
2018-04-25T03:29:05.503Z,5.80
2018-04-25T03:31:32.944Z,6.67
2018-04-25T03:34:00.385Z,6.20
2018-04-25T03:36:28.614Z,5.90
2018-04-25T03:38:56.064Z,6.30
2018-04-25T03:41:24.272Z,6.33
2018-04-25T03:43:52.465Z,5.97
2018-04-25T03:46:19.906Z,6.00
2018-04-25T03:48:47.342Z,6.30
2018-04-25T03:51:14.794Z,5.93
2018-04-25T03:53:42.999Z,6.67
2018-04-25T03:56:11.213Z,6.43
2018-04-25T03:58:38.642Z,7.10
2018-04-25T04:01:06.126Z,7.50
2018-04-25T04:03:33.554Z,6.13
2018-04-25T04:06:00.994Z,6.83
2018-04-25T04:08:28.429Z,6.40
2018-04-25T04:10:55.861Z,6.67
2018-04-25T04:13:23.308Z,6.90
2018-04-25T04:15:50.738Z,6.37
2018-04-25T04:18:18.946Z,6.07
2018-04-25T04:20:47.149Z,6.27
2018-04-25T04:23:14.594Z,5.00
2018-04-25T04:25:42.032Z,5.27
2018-04-25T04:28:09.488Z,5.90
2018-04-25T04:30:37.684Z,5.30
2018-04-25T04:33:05.914Z,6.33
2018-04-25T04:35:33.350Z,6.00
2018-04-25T04:38:01.572Z,7.43
2018-04-25T04:40:29.006Z,18.53
2018-04-25T04:42:56.458Z,16.20
2018-04-25T04:45:23.897Z,10.00
2018-04-25T04:47:52.118Z,7.10
2018-04-25T04:50:19.554Z,6.30
2018-04-25T04:52:46.997Z,5.70
2018-04-25T04:55:14.439Z,6.03
2018-04-25T04:57:42.655Z,5.40
2018-04-25T05:00:10.850Z,5.27
2018-04-25T05:02:38.305Z,5.63
2018-04-25T05:05:05.740Z,5.87
2018-04-25T05:07:33.165Z,6.20
2018-04-25T05:10:01.388Z,5.07
2018-04-25T05:12:28.818Z,5.53
2018-04-25T05:14:56.262Z,6.77
2018-04-25T05:17:23.773Z,5.90
2018-04-25T05:19:51.222Z,6.03
2018-04-25T05:22:18.650Z,7.10
2018-04-25T05:24:46.197Z,6.47
2018-04-25T05:27:13.530Z,7.70
2018-04-25T05:29:42.502Z,8.50
2018-04-25T05:32:09.982Z,6.90
2018-04-25T05:34:38.154Z,6.50
2018-04-25T05:37:05.590Z,6.53
2018-04-25T05:39:33.030Z,7.13
2018-04-25T05:42:00.466Z,7.00
2018-04-25T05:44:27.922Z,7.13
2018-04-25T05:46:55.353Z,7.50
2018-04-25T05:49:22.809Z,7.30
2018-04-25T05:51:50.306Z,7.87
2018-04-25T05:54:17.698Z,6.53
2018-04-25T05:56:45.139Z,7.87
2018-04-25T05:59:12.590Z,7.03
2018-04-25T06:01:40.022Z,5.93
2018-04-25T06:04:08.226Z,7.07
2018-04-25T06:06:36.438Z,7.20
2018-04-25T06:09:03.878Z,6.03
2018-04-25T06:11:31.321Z,8.50
2018-04-25T06:13:58.757Z,6.17
2018-04-25T06:16:26.207Z,6.47
2018-04-25T06:18:53.637Z,5.37
2018-04-25T06:21:21.087Z,5.93
2018-04-25T06:23:48.519Z,5.80
2018-04-25T06:26:15.961Z,6.73
2018-04-25T06:28:44.170Z,5.70
2018-04-25T06:31:12.383Z,4.90
2018-04-25T06:33:39.814Z,6.37
2018-04-25T06:36:07.274Z,6.03
2018-04-25T06:38:34.725Z,6.43
2018-04-25T06:41:02.174Z,5.90
2018-04-25T06:43:29.610Z,5.47
2018-04-25T06:45:57.055Z,5.90
2018-04-25T06:48:25.257Z,5.53
2018-04-25T06:50:53.467Z,5.10
2018-04-25T06:53:20.906Z,6.10
2018-04-25T06:55:48.349Z,5.40
2018-04-25T06:58:15.795Z,5.70
2018-04-25T07:00:44.007Z,4.80
2018-04-25T07:03:11.450Z,6.10
2018-04-25T07:05:38.881Z,5.80
2018-04-25T07:08:06.407Z,5.07
2018-04-25T07:10:34.546Z,5.77
2018-04-25T07:13:01.995Z,4.53
2018-04-25T07:15:29.439Z,4.60
2018-04-25T07:17:56.894Z,5.63
2018-04-25T07:20:24.330Z,5.93
2018-04-25T07:22:52.010Z,5.90
2018-04-25T07:25:19.447Z,5.83
2018-04-25T07:27:46.903Z,6.60
2018-04-25T07:30:15.110Z,4.73
2018-04-25T07:32:43.313Z,5.13
2018-04-25T07:35:10.745Z,4.70
2018-04-25T07:37:38.189Z,4.40
2018-04-25T07:40:05.627Z,5.37
2018-04-25T07:42:33.087Z,5.17
2018-04-25T07:45:00.540Z,4.53
2018-04-25T07:47:27.969Z,4.57
2018-04-25T07:49:55.409Z,5.50
2018-04-25T07:52:22.841Z,4.73
2018-04-25T07:54:51.055Z,4.40
2018-04-25T07:57:19.250Z,4.80
2018-04-25T07:59:47.462Z,5.13
2018-04-25T08:02:14.902Z,5.10
2018-04-25T08:04:42.342Z,4.13
2018-04-25T08:07:09.778Z,4.67
2018-04-25T08:09:37.994Z,4.87
2018-04-25T08:12:17.210Z,4.67
2018-04-25T08:14:56.687Z,4.47
2018-04-25T08:17:36.066Z,4.70
2018-04-25T08:20:16.218Z,4.30
2018-04-25T08:22:43.646Z,5.80
2018-04-25T08:25:11.103Z,4.77
2018-04-25T08:27:39.311Z,4.73
2018-04-25T08:30:07.521Z,4.50
2018-04-25T08:32:34.973Z,4.97
2018-04-25T08:35:02.431Z,4.50
2018-04-25T08:37:29.865Z,4.60
2018-04-25T08:39:57.309Z,4.80
2018-04-25T08:42:24.747Z,5.80
2018-04-25T08:44:52.270Z,6.40
2018-04-25T08:47:20.389Z,4.50
2018-04-25T08:49:48.617Z,5.17
2018-04-25T08:52:16.041Z,5.60
2018-04-25T08:54:43.570Z,4.73
2018-04-25T08:57:10.925Z,4.60
2018-04-25T08:59:39.132Z,5.73
2018-04-25T09:02:07.341Z,4.67
2018-04-25T09:04:34.797Z,4.77
2018-04-25T09:07:02.998Z,5.70
2018-04-25T09:09:31.198Z,5.10
2018-04-25T09:11:59.411Z,4.43
2018-04-25T09:14:27.614Z,4.13
2018-04-25T09:16:55.066Z,4.50
2018-04-25T09:19:22.510Z,4.70
2018-04-25T09:21:49.951Z,4.53
2018-04-25T09:24:18.154Z,4.90
2018-04-25T09:26:45.603Z,4.43
2018-04-25T09:29:13.036Z,5.27
2018-04-25T09:31:40.486Z,4.33
2018-04-25T09:34:08.691Z,4.70
2018-04-25T09:36:36.144Z,4.20
2018-04-25T09:39:03.582Z,4.43
2018-04-25T09:41:31.026Z,4.20
2018-04-25T09:43:59.225Z,5.53
2018-04-25T09:46:27.452Z,4.67
2018-04-25T09:48:54.880Z,5.17
2018-04-25T09:51:22.326Z,4.80
2018-04-25T09:53:49.757Z,4.20
2018-04-25T09:56:17.202Z,4.57
2018-04-25T09:58:44.638Z,5.20
2018-04-25T10:01:12.845Z,4.20
2018-04-25T10:03:44.241Z,4.93
2018-04-25T10:06:11.685Z,4.63
2018-04-25T10:08:39.890Z,4.77
2018-04-25T10:11:08.111Z,5.00
2018-04-25T10:13:35.550Z,5.40
2018-04-25T10:16:03.763Z,4.30
2018-04-25T10:18:31.982Z,5.00
2018-04-25T10:20:59.426Z,4.63
2018-04-25T10:23:26.862Z,3.90
2018-04-25T10:25:54.311Z,4.37
2018-04-25T10:28:22.517Z,4.03
2018-04-25T10:30:49.949Z,3.67
2018-04-25T10:33:17.399Z,4.93
2018-04-25T10:35:44.839Z,3.27
2018-04-25T10:38:13.050Z,4.33
2018-04-25T10:40:41.250Z,5.50
2018-04-25T10:43:09.462Z,4.00
2018-04-25T10:45:36.893Z,5.07
2018-04-25T10:48:04.376Z,4.50
2018-04-25T10:50:31.807Z,4.27
2018-04-25T10:52:59.265Z,4.50
2018-04-25T10:55:27.504Z,4.20
2018-04-25T10:57:55.678Z,4.53
2018-04-25T11:00:23.134Z,4.73
2018-04-25T11:02:50.573Z,3.87
2018-04-25T11:05:18.007Z,3.70
2018-04-25T11:07:46.221Z,4.23
2018-04-25T11:10:13.657Z,4.43
2018-04-25T11:12:41.096Z,3.10
2018-04-25T11:15:08.538Z,3.70
2018-04-25T11:17:36.742Z,3.77
2018-04-25T11:20:04.973Z,3.90
2018-04-25T11:22:32.414Z,4.07
2018-04-25T11:25:00.690Z,3.93
2018-04-25T11:27:28.835Z,4.83
2018-04-25T11:29:56.274Z,3.57
2018-04-25T11:32:23.714Z,4.20
2018-04-25T11:34:51.158Z,4.20
2018-04-25T11:37:19.363Z,3.50
2018-04-25T11:39:47.576Z,3.60
2018-04-25T11:42:15.026Z,3.63
2018-04-25T11:44:42.474Z,3.10
2018-04-25T11:47:09.960Z,4.03
2018-04-25T11:49:38.117Z,3.30
2018-04-25T11:52:05.549Z,4.13
2018-04-25T11:54:32.986Z,4.23
2018-04-25T11:57:00.430Z,3.47
2018-04-25T11:59:28.635Z,4.20
2018-04-25T12:01:56.843Z,3.57
2018-04-25T12:04:25.042Z,3.70
2018-04-25T12:06:52.490Z,4.77
2018-04-25T12:09:19.935Z,3.60
2018-04-25T12:11:47.386Z,3.67
2018-04-25T12:14:15.590Z,4.33
2018-04-25T12:16:43.033Z,3.90
2018-04-25T12:19:10.467Z,3.47
2018-04-25T12:21:37.906Z,3.57
2018-04-25T12:24:06.118Z,4.93
2018-04-25T12:26:34.326Z,3.60
2018-04-25T12:29:01.764Z,3.50
2018-04-25T12:31:29.207Z,2.77
2018-04-25T12:33:56.652Z,4.00
2018-04-25T12:36:24.093Z,3.53
2018-04-25T12:38:51.526Z,3.57
2018-04-25T12:41:19.735Z,3.27
2018-04-25T12:43:47.165Z,3.20
2018-04-25T12:46:14.625Z,3.60
2018-04-25T12:48:42.063Z,5.30
2018-04-25T12:51:10.261Z,4.00
2018-04-25T12:53:38.474Z,3.60
2018-04-25T12:56:05.930Z,3.60
2018-04-25T12:58:33.357Z,3.40
2018-04-25T13:01:00.795Z,3.73
2018-04-25T13:03:29.013Z,3.20
2018-04-25T13:05:56.446Z,3.10
2018-04-25T13:08:23.905Z,3.23
2018-04-25T13:10:51.330Z,3.33
2018-04-25T13:13:19.543Z,2.93
2018-04-25T13:15:47.742Z,3.10
2018-04-25T13:18:19.823Z,3.17
2018-04-25T13:20:48.017Z,3.70
2018-04-25T13:23:15.453Z,3.50
2018-04-25T13:25:42.902Z,2.70
2018-04-25T13:28:10.346Z,3.37
2018-04-25T13:30:37.791Z,3.33
2018-04-25T13:33:05.234Z,3.80
2018-04-25T13:35:32.671Z,2.87
2018-04-25T13:38:00.114Z,3.10
2018-04-25T13:40:27.547Z,3.43
2018-04-25T13:42:54.993Z,3.20
2018-04-25T13:45:22.426Z,3.70
2018-04-25T13:47:50.630Z,3.00
2018-04-25T13:50:18.842Z,3.00
2018-04-25T13:52:46.275Z,3.30
2018-04-25T13:55:13.717Z,3.13
2018-04-25T13:57:41.172Z,3.60
2018-04-25T14:00:09.383Z,3.50
2018-04-25T14:02:36.818Z,4.37
2018-04-25T14:05:04.260Z,3.30
2018-04-25T14:07:31.755Z,2.80
2018-04-25T14:09:59.138Z,3.33
2018-04-25T14:12:26.570Z,3.93
2018-04-25T14:14:54.778Z,3.50
2018-04-25T14:17:22.982Z,3.07
2018-04-25T14:19:50.429Z,3.57
2018-04-25T14:22:17.861Z,3.20
2018-04-25T14:24:45.370Z,3.37
2018-04-25T14:27:13.505Z,3.40
2018-04-25T14:29:41.724Z,3.60
2018-04-25T14:32:09.164Z,2.73
2018-04-25T14:34:36.621Z,3.20
2018-04-25T14:37:04.059Z,3.27
2018-04-25T14:39:32.257Z,3.03
2018-04-25T14:41:59.712Z,3.97
2018-04-25T14:44:27.143Z,4.17
2018-04-25T14:46:54.595Z,3.80
2018-04-25T14:49:22.801Z,3.80
2018-04-25T14:51:51.015Z,3.30
2018-04-25T14:54:18.454Z,3.73
2018-04-25T14:56:45.897Z,5.17
2018-04-25T14:59:13.333Z,3.43
2018-04-25T15:01:41.553Z,3.30
2018-04-25T15:04:08.986Z,3.63
2018-04-25T15:06:36.438Z,4.27
2018-04-25T15:09:03.876Z,3.90
2018-04-25T15:11:32.090Z,3.57
2018-04-25T15:13:59.525Z,3.60
2018-04-25T15:16:26.965Z,4.20
2018-04-25T15:18:54.401Z,3.60
2018-04-25T15:21:21.851Z,4.03
2018-04-25T15:23:49.281Z,4.50
2018-04-25T15:26:17.485Z,2.90
2018-04-25T15:28:44.922Z,3.83
2018-04-25T15:31:12.364Z,3.60
2018-04-25T15:33:39.808Z,3.60
2018-04-25T15:36:08.001Z,3.20
2018-04-25T15:38:36.209Z,4.73
2018-04-25T15:41:05.226Z,3.43
2018-04-25T15:43:33.439Z,3.20
2018-04-25T15:46:00.875Z,3.80
2018-04-25T15:48:28.318Z,2.90
2018-04-25T15:50:55.757Z,3.40
2018-04-25T15:53:24.002Z,2.70
2018-04-25T15:55:52.162Z,2.93
2018-04-25T15:58:20.370Z,2.97
2018-04-25T16:00:48.565Z,2.97
2018-04-25T16:03:16.774Z,4.07
2018-04-25T16:05:44.221Z,3.97
2018-04-25T16:08:11.658Z,2.73
2018-04-25T16:10:39.095Z,4.03
2018-04-25T16:13:06.542Z,3.53
2018-04-25T16:15:33.978Z,3.50
2018-04-25T16:18:01.426Z,4.30
2018-04-25T16:20:28.858Z,4.30
2018-04-25T16:22:56.354Z,3.60
2018-04-25T16:25:24.512Z,3.90
2018-04-25T16:27:52.714Z,3.23
2018-04-25T16:30:20.914Z,4.10
2018-04-25T16:32:49.127Z,3.90
2018-04-25T16:35:16.562Z,4.10
2018-04-25T16:37:43.996Z,4.17
2018-04-25T16:40:11.440Z,4.57
2018-04-25T16:42:39.647Z,3.73
2018-04-25T16:45:07.854Z,3.57
2018-04-25T16:47:35.286Z,3.03
2018-04-25T16:50:02.738Z,3.80
2018-04-25T16:52:30.183Z,3.63
2018-04-25T16:54:58.385Z,4.60
2018-04-25T16:57:26.589Z,5.33
2018-04-25T16:59:54.808Z,4.03
2018-04-25T17:02:22.236Z,4.33
2018-04-25T17:04:49.673Z,3.70
2018-04-25T17:07:17.126Z,4.20
2018-04-25T17:09:45.335Z,3.70
2018-04-25T17:12:12.765Z,3.20
2018-04-25T17:14:40.214Z,3.33
2018-04-25T17:17:07.653Z,3.73
2018-04-25T17:19:35.868Z,4.33
2018-04-25T17:22:04.075Z,3.97
2018-04-25T17:24:31.523Z,4.50
2018-04-25T17:26:58.954Z,3.93
2018-04-25T17:29:26.405Z,3.37
2018-04-25T17:31:54.621Z,4.33
2018-04-25T17:34:22.054Z,3.40
2018-04-25T17:36:49.511Z,4.77
2018-04-25T17:39:16.940Z,4.13
2018-04-25T17:41:45.154Z,3.23
2018-04-25T17:44:12.585Z,3.80
2018-04-25T17:46:40.035Z,4.00
2018-04-25T17:49:07.465Z,3.43
2018-04-25T17:51:34.912Z,3.70
2018-04-25T17:54:03.109Z,3.20
2018-04-25T17:56:30.550Z,3.60
2018-04-25T17:58:57.990Z,3.53
2018-04-25T18:01:25.433Z,3.63
2018-04-25T18:03:52.881Z,3.30
2018-04-25T18:06:21.089Z,3.57
2018-04-25T18:08:49.299Z,3.20
2018-04-25T18:11:16.749Z,3.33
2018-04-25T18:13:44.169Z,3.17
2018-04-25T18:16:11.614Z,3.30
2018-04-25T18:18:39.053Z,3.33
2018-04-25T18:21:06.510Z,3.80
2018-04-25T18:23:33.947Z,3.70
2018-04-25T18:26:01.387Z,3.40
2018-04-25T18:28:28.826Z,3.27
2018-04-25T18:30:57.026Z,3.60
2018-04-25T18:33:25.243Z,3.30
2018-04-25T18:35:52.683Z,3.53
2018-04-25T18:38:20.127Z,3.53
2018-04-25T18:40:47.553Z,3.20
2018-04-25T18:43:14.993Z,3.07
2018-04-25T18:45:42.430Z,3.70
2018-04-25T18:48:10.648Z,3.50
2018-04-25T18:50:38.843Z,3.80
2018-04-25T18:53:06.281Z,3.50
2018-04-25T18:55:33.709Z,4.10
2018-04-25T18:58:01.161Z,4.87
2018-04-25T19:00:29.362Z,3.80
2018-04-25T19:02:57.571Z,3.10
2018-04-25T19:05:25.773Z,3.50
2018-04-25T19:07:53.977Z,3.67
2018-04-25T19:10:21.410Z,3.50
2018-04-25T19:12:48.863Z,4.30
2018-04-25T19:15:16.376Z,3.50
2018-04-25T19:17:43.730Z,3.53
2018-04-25T19:20:11.176Z,3.13
2018-04-25T19:22:39.374Z,4.30
2018-04-25T19:25:07.589Z,4.40
2018-04-25T19:27:35.022Z,3.40
2018-04-25T19:30:02.467Z,3.80
2018-04-25T19:32:29.901Z,3.20
2018-04-25T19:34:58.110Z,3.93
2018-04-25T19:37:25.541Z,4.40
2018-04-25T19:39:52.981Z,3.73
2018-04-25T19:42:20.416Z,4.20
2018-04-25T19:44:47.876Z,3.47
2018-04-25T19:47:15.299Z,4.90
2018-04-25T19:49:43.513Z,3.87
2018-04-25T19:52:11.724Z,4.43
2018-04-25T19:54:39.161Z,3.90
2018-04-25T19:57:06.594Z,3.60
2018-04-25T19:59:34.034Z,3.60
2018-04-25T20:02:02.243Z,3.97
2018-04-25T20:04:30.451Z,4.00
2018-04-25T20:06:57.882Z,4.40
2018-04-25T20:09:25.321Z,4.00
2018-04-25T20:11:52.762Z,3.80
2018-04-25T20:14:20.194Z,3.50
2018-04-25T20:16:47.641Z,4.20
2018-04-25T20:19:15.854Z,3.53
2018-04-25T20:21:44.057Z,4.20
2018-04-25T20:24:12.251Z,4.30
2018-04-25T20:26:40.458Z,3.00
2018-04-25T20:29:07.887Z,3.67
2018-04-25T20:31:35.334Z,3.70
2018-04-25T20:34:02.791Z,3.80
2018-04-25T20:36:30.230Z,3.33
2018-04-25T20:38:57.665Z,3.50
2018-04-25T20:41:25.114Z,3.60
2018-04-25T20:43:52.551Z,4.20
2018-04-25T20:46:19.994Z,3.90
2018-04-25T20:48:48.190Z,4.10
2018-04-25T20:51:16.397Z,3.60
2018-04-25T20:53:43.836Z,4.40
2018-04-25T20:56:11.276Z,3.50
2018-04-25T20:58:38.710Z,4.30
2018-04-25T21:01:06.153Z,4.23
2018-04-25T21:03:33.650Z,4.63
2018-04-25T21:06:01.806Z,3.73
2018-04-25T21:08:29.238Z,4.13
2018-04-25T21:10:56.688Z,3.70
2018-04-25T21:13:24.122Z,3.00
2018-04-25T21:15:52.327Z,3.90
2018-04-25T21:18:20.539Z,3.20
2018-04-25T21:20:47.970Z,4.60
2018-04-25T21:23:15.412Z,3.87
2018-04-25T21:25:42.845Z,3.27
2018-04-25T21:28:10.291Z,3.83
2018-04-25T21:30:37.726Z,4.03
2018-04-25T21:33:05.935Z,3.37
2018-04-25T21:35:33.366Z,3.90
2018-04-25T21:38:00.816Z,4.23
2018-04-25T21:40:28.247Z,4.50
2018-04-25T21:42:55.693Z,4.00
2018-04-25T21:45:23.126Z,3.60
2018-04-25T21:47:51.334Z,3.53
2018-04-25T21:50:19.537Z,4.27
2018-04-25T21:52:46.998Z,5.33
2018-04-25T21:55:14.423Z,4.40
2018-04-25T21:57:41.871Z,4.40
2018-04-25T22:00:10.085Z,4.60
2018-04-25T22:02:37.530Z,3.97
2018-04-25T22:05:04.961Z,3.63
2018-04-25T22:07:32.404Z,3.30
2018-04-25T22:10:00.612Z,3.87
2018-04-25T22:12:28.814Z,3.03
2018-04-25T22:14:57.017Z,2.90
2018-04-25T22:17:24.466Z,3.37
2018-04-25T22:19:51.910Z,3.20
2018-04-25T22:22:19.355Z,2.67
2018-04-25T22:24:47.550Z,2.60
2018-04-25T22:27:15.753Z,3.20
2018-04-25T22:29:43.963Z,2.30
2018-04-25T22:32:11.395Z,2.33
2018-04-25T22:34:38.845Z,2.63
2018-04-25T22:37:06.276Z,2.43
2018-04-25T22:39:33.714Z,2.37
2018-04-25T22:42:01.151Z,2.50
2018-04-25T22:44:29.363Z,2.00
2018-04-25T22:46:56.799Z,2.17
2018-04-25T22:49:24.241Z,2.27
2018-04-25T22:51:51.682Z,1.77
2018-04-25T22:54:19.899Z,1.90
2018-04-25T22:56:48.093Z,1.60
2018-04-25T22:59:16.298Z,1.50
2018-04-25T23:01:43.733Z,1.70
2018-04-25T23:18:34.906Z,1.67
2018-04-25T23:21:02.341Z,1.73
2018-04-25T23:23:29.784Z,1.70
2018-04-25T23:25:57.213Z,1.60
2018-04-25T23:28:24.659Z,1.90
2018-04-25T23:30:52.861Z,1.90
2018-04-25T23:33:21.059Z,1.70
2018-04-25T23:35:49.265Z,1.70
2018-04-25T23:38:16.709Z,1.50
2018-04-25T23:40:44.138Z,1.50
2018-04-25T23:43:11.573Z,1.53
2018-04-25T23:45:39.011Z,1.53
2018-04-25T23:48:06.470Z,1.40
2018-04-25T23:50:33.897Z,1.90
2018-04-25T23:53:01.341Z,1.77
2018-04-25T23:55:28.770Z,1.80
2018-04-25T23:57:56.201Z,1.33
